Time;durP1;ratioP1;P1;durP2;ratioP2;P2;SDS_P1;SDS_P2;PMS_P1;PMS_P2;Temp;Humidity;BMP_temperature;BMP_pressure;BME280_temperature;BME280_humidity;BME280_pressure;Samples;Min_cycle;Max_cycle;Signal;HPM_P1;HPM_P2
2022/12/03 00:00:46;;;;;;;7.43;6.40;;;;;;;6.64;100.00;102650.59;2080029;28;20285;-61
2022/12/03 00:01:46;;;;;;;9.33;6.83;;;;;;;6.67;100.00;102653.44;2072914;28;20218;-60
2022/12/03 00:02:47;;;;;;;7.93;6.47;;;;;;;6.63;100.00;102658.06;2072967;28;20732;-60
2022/12/03 00:03:47;;;;;;;7.83;6.67;;;;;;;6.65;100.00;102654.94;2072323;28;20579;-60
2022/12/03 00:04:48;;;;;;;7.67;6.40;;;;;;;6.66;100.00;102648.31;2072840;28;20221;-60
2022/12/03 00:05:48;;;;;;;7.77;6.70;;;;;;;6.62;100.00;102658.44;2072412;28;20692;-60
2022/12/03 00:06:49;;;;;;;10.73;7.07;;;;;;;6.60;100.00;102656.03;2072722;28;20193;-60
2022/12/03 00:07:49;;;;;;;8.43;6.40;;;;;;;6.53;100.00;102649.53;2072560;28;20204;-61
2022/12/03 00:08:49;;;;;;;8.07;6.77;;;;;;;6.46;100.00;102654.88;2072838;28;20204;-60
2022/12/03 00:09:50;;;;;;;8.00;6.63;;;;;;;6.38;100.00;102666.88;2072422;28;20194;-60
2022/12/03 00:10:50;;;;;;;8.70;6.93;;;;;;;6.33;100.00;102665.19;2072079;28;20200;-61
2022/12/03 00:11:51;;;;;;;8.80;6.63;;;;;;;6.27;100.00;102669.34;2072487;28;20906;-60
2022/12/03 00:12:51;;;;;;;7.77;6.90;;;;;;;6.30;100.00;102668.63;2071993;28;21107;-60
2022/12/03 00:13:52;;;;;;;10.33;7.67;;;;;;;6.35;100.00;102667.59;2072227;28;20204;-60
2022/12/03 00:14:52;;;;;;;7.53;6.70;;;;;;;6.38;100.00;102664.09;2072677;28;20192;-60
2022/12/03 00:15:52;;;;;;;9.07;7.10;;;;;;;6.42;100.00;102667.75;2072607;28;20200;-60
2022/12/03 00:16:53;;;;;;;9.07;7.43;;;;;;;6.44;100.00;102674.50;2072700;28;20197;-61
2022/12/03 00:17:53;;;;;;;9.60;6.90;;;;;;;6.13;100.00;102616.66;2072335;28;20923;-60
2022/12/03 00:18:54;;;;;;;8.20;6.90;;;;;;;6.48;100.00;102677.34;2072868;28;20192;-61
2022/12/03 00:19:54;;;;;;;7.73;6.60;;;;;;;6.50;100.00;102675.03;2072118;28;20565;-61
2022/12/03 00:20:54;;;;;;;7.43;6.60;;;;;;;6.48;100.00;102680.91;2072403;28;20271;-60
2022/12/03 00:21:55;;;;;;;8.57;6.93;;;;;;;6.48;100.00;102680.09;2072627;28;20285;-59
2022/12/03 00:22:55;;;;;;;7.67;6.80;;;;;;;6.50;100.00;102677.78;2072818;28;20197;-60
2022/12/03 00:23:56;;;;;;;8.33;7.00;;;;;;;6.36;100.00;102658.16;2072622;28;20216;-60
2022/12/03 00:24:56;;;;;;;7.67;6.87;;;;;;;6.52;100.00;102679.03;2072705;28;20197;-61
2022/12/03 00:25:56;;;;;;;7.27;6.53;;;;;;;6.53;100.00;102680.66;2072525;28;20694;-61
2022/12/03 00:26:57;;;;;;;7.63;6.80;;;;;;;6.53;100.00;102685.34;2072429;28;20208;-60
2022/12/03 00:27:57;;;;;;;7.60;6.80;;;;;;;6.46;100.00;102682.44;2072485;28;20209;-60
2022/12/03 00:28:58;;;;;;;8.10;6.80;;;;;;;5.68;100.00;102565.88;2072658;28;20182;-60
2022/12/03 00:29:58;;;;;;;8.57;7.00;;;;;;;6.47;100.00;102687.56;2072070;28;20186;-60
2022/12/03 00:30:59;;;;;;;9.33;6.97;;;;;;;6.41;100.00;102674.44;2072445;28;20186;-60
2022/12/03 00:31:59;;;;;;;8.33;7.07;;;;;;;6.15;100.00;102630.09;2072459;28;20521;-60
2022/12/03 00:32:59;;;;;;;7.73;6.37;;;;;;;6.50;100.00;102684.09;2072496;28;20190;-61
2022/12/03 00:34:00;;;;;;;8.33;7.40;;;;;;;6.54;100.00;102686.94;2072411;28;20273;-60
2022/12/03 00:35:00;;;;;;;7.70;6.87;;;;;;;6.34;100.00;102649.44;2072553;28;20194;-60
2022/12/03 00:36:01;;;;;;;7.67;6.30;;;;;;;6.48;100.00;102680.09;2072214;28;20269;-60
2022/12/03 00:37:01;;;;;;;8.47;7.03;;;;;;;6.45;100.00;102678.84;2072379;28;20882;-62
2022/12/03 00:38:02;;;;;;;8.83;6.60;;;;;;;6.46;100.00;102685.19;2072616;28;20178;-60
2022/12/03 00:39:02;;;;;;;7.63;6.77;;;;;;;6.10;100.00;102619.34;2072572;28;20194;-60
2022/12/03 00:40:04;;;;;;;10.13;6.70;;;;;;;6.52;100.00;102690.03;2070757;28;20244;-60
2022/12/03 00:41:05;;;;;;;7.78;6.60;;;;;;;6.50;100.00;102677.78;2072225;28;20264;-60
2022/12/03 00:42:05;;;;;;;7.90;6.80;;;;;;;6.37;100.00;102659.75;2072435;28;20308;-60
2022/12/03 00:43:05;;;;;;;8.83;7.00;;;;;;;6.50;100.00;102675.84;2072451;28;20194;-60
2022/12/03 00:44:06;;;;;;;7.80;6.70;;;;;;;6.57;100.00;102681.50;2072257;28;20265;-60
2022/12/03 00:45:07;;;;;;;8.47;7.30;;;;;;;6.58;100.00;102683.13;2072315;28;20266;-60
2022/12/03 00:46:08;;;;;;;9.10;7.33;;;;;;;6.56;100.00;102677.16;2072538;28;20182;-60
2022/12/03 00:47:08;;;;;;;8.10;7.20;;;;;;;6.46;100.00;102687.94;2072468;28;20805;-60
2022/12/03 00:48:09;;;;;;;9.03;7.33;;;;;;;6.42;100.00;102685.06;2072269;28;20684;-60
2022/12/03 00:49:09;;;;;;;8.00;6.87;;;;;;;6.42;100.00;102681.53;2072246;28;20194;-60
2022/12/03 00:50:10;;;;;;;8.80;7.30;;;;;;;6.38;100.00;102686.97;2071939;28;20212;-60
2022/12/03 00:51:10;;;;;;;9.20;7.60;;;;;;;6.40;100.00;102684.63;2072252;28;20194;-60
2022/12/03 00:52:11;;;;;;;7.70;6.90;;;;;;;6.23;100.00;102665.72;2072385;28;20210;-60
2022/12/03 00:53:11;;;;;;;8.40;7.27;;;;;;;6.37;100.00;102688.13;2072271;28;20205;-60
2022/12/03 00:54:12;;;;;;;8.37;7.30;;;;;;;5.64;100.00;102565.78;2072118;28;20183;-61
2022/12/03 00:55:12;;;;;;;8.87;7.73;;;;;;;6.50;100.00;102686.03;2072266;28;20225;-61
2022/12/03 00:56:13;;;;;;;9.10;7.30;;;;;;;6.50;100.00;102688.81;2072087;28;20220;-60
2022/12/03 00:57:13;;;;;;;9.03;7.43;;;;;;;6.50;100.00;102692.38;2072237;28;20174;-60
2022/12/03 00:58:13;;;;;;;9.27;7.67;;;;;;;6.52;100.00;102694.78;2072267;28;20279;-61
2022/12/03 00:59:14;;;;;;;8.70;7.40;;;;;;;6.34;100.00;102660.47;2072070;28;20181;-60
2022/12/03 01:00:15;;;;;;;8.73;7.73;;;;;;;6.53;100.00;102699.94;2071868;28;20193;-60
2022/12/03 01:01:15;;;;;;;9.07;7.80;;;;;;;6.28;100.00;102654.44;2072198;28;20243;-60
2022/12/03 01:02:16;;;;;;;8.87;7.97;;;;;;;6.43;100.00;102678.44;2072214;28;20685;-60
2022/12/03 01:03:16;;;;;;;10.37;8.13;;;;;;;6.53;100.00;102696.38;2072365;28;20224;-60
2022/12/03 01:04:17;;;;;;;10.43;7.90;;;;;;;6.57;100.00;102695.28;2072198;28;20248;-60
2022/12/03 01:05:18;;;;;;;8.77;7.63;;;;;;;6.50;100.00;102688.81;2072270;28;20206;-60
2022/12/03 01:06:19;;;;;;;9.88;8.15;;;;;;;6.58;100.00;102696.91;2071856;28;20201;-60
2022/12/03 01:07:19;;;;;;;8.77;7.20;;;;;;;6.31;100.00;102653.69;2072334;28;20196;-60
2022/12/03 01:08:20;;;;;;;8.57;7.63;;;;;;;6.67;100.00;102705.00;2071840;28;20195;-60
2022/12/03 01:09:20;;;;;;;9.13;7.77;;;;;;;6.72;100.00;102697.25;2071740;28;20197;-60
2022/12/03 01:10:20;;;;;;;9.07;7.80;;;;;;;6.76;100.00;102689.88;2071890;28;20227;-62
2022/12/03 01:11:36;;;;;;;8.27;7.33;;;;;;;6.80;100.00;102695.47;2072066;28;20193;-60
2022/12/03 01:12:37;;;;;;;8.88;7.50;;;;;;;6.69;100.00;102672.38;2071782;28;20559;-60
2022/12/03 01:13:37;;;;;;;9.00;8.00;;;;;;;6.79;100.00;102693.88;2071921;28;20185;-60
2022/12/03 01:14:38;;;;;;;9.30;7.23;;;;;;;6.79;100.00;102704.91;2072414;28;20174;-61
2022/12/03 01:15:38;;;;;;;10.30;7.40;;;;;;;6.74;100.00;102700.47;2071877;28;20261;-60
2022/12/03 01:16:40;;;;;;;9.30;8.13;;;;;;;6.49;100.00;102678.94;2072129;28;20591;-60
2022/12/03 01:17:40;;;;;;;10.13;8.55;;;;;;;6.79;100.00;102704.91;2072009;28;20192;-60
2022/12/03 01:18:41;;;;;;;9.53;8.40;;;;;;;6.75;100.00;102696.56;2072224;28;20182;-60
2022/12/03 01:19:41;;;;;;;9.60;8.47;;;;;;;6.78;100.00;102697.78;2071544;28;20178;-59
2022/12/03 01:20:42;;;;;;;8.63;7.70;;;;;;;6.77;100.00;102698.94;2071973;28;20189;-60
2022/12/03 01:21:45;;;;;;;10.60;8.27;;;;;;;6.77;100.00;102696.19;2079521;28;20188;-60
2022/12/03 01:22:46;;;;;;;9.85;8.40;;;;;;;6.77;100.00;102698.94;2079454;28;20228;-60
2022/12/03 01:23:46;;;;;;;9.53;8.10;;;;;;;6.55;100.00;102692.09;2071989;28;20240;-60
2022/12/03 01:24:47;;;;;;;10.30;8.27;;;;;;;6.65;100.00;102710.03;2072115;28;20190;-60
2022/12/03 01:25:47;;;;;;;11.63;8.70;;;;;;;6.66;100.00;102701.44;2071278;28;20259;-60
2022/12/03 01:26:47;;;;;;;9.80;8.43;;;;;;;6.70;100.00;102699.56;2072130;28;20233;-60
2022/12/03 01:27:48;;;;;;;9.70;8.57;;;;;;;6.75;100.00;102704.81;2071945;28;20689;-60
2022/12/03 01:28:48;;;;;;;11.53;8.50;;;;;;;6.71;100.00;102697.63;2071607;28;20185;-60
2022/12/03 01:29:49;;;;;;;9.33;8.23;;;;;;;6.53;100.00;102682.59;2071527;28;20647;-60
2022/12/03 01:32:18;;;;;;;9.73;7.80;;;;;;;6.60;100.00;102705.63;2071859;28;20182;-60
2022/12/03 01:33:18;;;;;;;8.63;7.57;;;;;;;6.55;100.00;102702.31;2071568;28;20636;-60
2022/12/03 01:34:19;;;;;;;9.03;8.00;;;;;;;6.14;100.00;102637.53;2071926;28;20651;-60
2022/12/03 01:35:19;;;;;;;10.07;8.17;;;;;;;6.55;100.00;102702.31;2072151;28;20181;-60
2022/12/03 01:36:20;;;;;;;9.77;8.13;;;;;;;6.58;100.00;102702.44;2071003;28;20192;-60
2022/12/03 01:37:23;;;;;;;10.13;8.40;;;;;;;6.54;100.00;102698.78;2072039;28;20182;-60
2022/12/03 01:38:23;;;;;;;10.35;8.45;;;;;;;6.53;100.00;102704.63;2071835;28;20189;-60
2022/12/03 01:39:24;;;;;;;10.77;7.93;;;;;;;6.58;100.00;102707.94;2071698;28;20224;-60
2022/12/03 01:40:24;;;;;;;8.67;7.77;;;;;;;6.57;100.00;102706.31;2071388;28;20185;-60
2022/12/03 01:41:25;;;;;;;9.70;8.00;;;;;;;6.50;100.00;102700.63;2072027;28;20235;-60
2022/12/03 01:42:33;;;;;;;9.37;8.07;;;;;;;6.58;100.00;102710.69;2072124;28;20188;-60
2022/12/03 01:43:34;;;;;;;9.23;8.18;;;;;;;6.21;100.00;102647.94;2071528;28;20233;-60
2022/12/03 01:44:37;;;;;;;9.13;8.03;;;;;;;6.63;100.00;102706.84;2079489;28;20185;-60
2022/12/03 01:45:38;;;;;;;10.20;8.45;;;;;;;6.61;100.00;102711.94;2078925;28;20239;-60
2022/12/03 01:46:40;;;;;;;10.00;7.87;;;;;;;6.65;100.00;102710.03;2072115;28;20705;-60
2022/12/03 01:47:41;;;;;;;9.82;7.88;;;;;;;6.61;100.00;102714.69;2071674;28;20182;-60
2022/12/03 01:48:41;;;;;;;10.00;7.83;;;;;;;6.69;100.00;102716.44;2072077;28;20382;-59
2022/12/03 01:49:46;;;;;;;9.70;8.10;;;;;;;6.73;100.00;102706.31;2071343;28;20213;-60
2022/12/03 01:50:46;;;;;;;9.13;7.65;;;;;;;6.79;100.00;102707.66;2071190;28;20186;-60
2022/12/03 01:51:49;;;;;;;8.53;7.63;;;;;;;6.76;100.00;102731.22;2071705;28;20190;-60
2022/12/03 01:52:49;;;;;;;9.27;7.82;;;;;;;6.71;100.00;102714.94;2072237;28;20175;-60
2022/12/03 01:53:50;;;;;;;9.63;8.13;;;;;;;6.43;100.00;102661.91;2071760;28;20181;-60
2022/12/03 01:54:56;;;;;;;9.27;7.80;;;;;;;6.69;100.00;102710.94;2071413;28;20197;-60
2022/12/03 01:55:57;;;;;;;9.55;7.75;;;;;;;6.37;100.00;102659.75;2071037;28;20258;-60
2022/12/03 01:56:57;;;;;;;9.10;8.03;;;;;;;6.15;100.00;102635.59;2071955;28;20206;-60
2022/12/03 01:58:00;;;;;;;9.00;7.83;;;;;;;6.60;100.00;102702.84;2071772;28;20239;-59
2022/12/03 01:59:01;;;;;;;9.73;8.07;;;;;;;6.58;100.00;102704.38;2071914;28;20189;-60
2022/12/03 02:00:01;;;;;;;9.33;8.13;;;;;;;6.58;100.00;102704.38;2070921;28;20217;-60
2022/12/03 02:01:09;;;;;;;8.70;7.80;;;;;;;6.60;100.00;102699.28;2071831;28;20557;-60
2022/12/03 02:02:19;;;;;;;10.30;8.98;;;;;;;6.50;100.00;102689.63;2071830;28;20178;-60
2022/12/03 02:03:23;;;;;;;10.07;8.55;;;;;;;6.55;100.00;102699.56;2071616;28;20564;-60
2022/12/03 02:04:24;;;;;;;9.23;7.85;;;;;;;6.46;100.00;102690.69;2071947;28;20182;-60
2022/12/03 02:05:27;;;;;;;8.77;7.87;;;;;;;6.51;100.00;102690.44;2071467;28;20332;-60
2022/12/03 02:06:29;;;;;;;9.55;7.75;;;;;;;6.41;100.00;102680.72;2071904;28;20235;-59
2022/12/03 02:07:32;;;;;;;9.60;8.15;;;;;;;6.47;100.00;102690.31;2071068;28;20181;-60
2022/12/03 02:08:35;;;;;;;10.02;8.00;;;;;;;6.54;100.00;102695.22;2071950;28;20603;-60
2022/12/03 02:09:35;;;;;;;9.70;8.45;;;;;;;6.59;100.00;102683.94;2071230;28;20347;-60
2022/12/03 02:10:37;;;;;;;11.03;8.67;;;;;;;6.57;100.00;102689.00;2071542;28;20192;-60
2022/12/03 02:11:47;;;;;;;9.82;8.27;;;;;;;5.88;100.00;102587.69;2071541;28;20567;-60
2022/12/03 02:12:53;;;;;;;11.00;8.40;;;;;;;6.49;100.00;102692.72;2071594;28;20188;-59
2022/12/03 02:14:02;;;;;;;9.63;8.13;;;;;;;6.48;100.00;102694.69;2071576;28;20234;-60
2022/12/03 02:15:06;;;;;;;8.52;7.47;;;;;;;5.46;100.00;102530.72;2071752;28;20601;-60
2022/12/03 02:16:07;;;;;;;9.43;8.43;;;;;;;6.47;100.00;102690.31;2071690;28;20185;-60
2022/12/03 02:17:08;;;;;;;9.60;8.18;;;;;;;6.51;100.00;102682.16;2071494;28;20221;-60
2022/12/03 02:18:09;;;;;;;9.60;8.60;;;;;;;6.57;100.00;102680.75;2071981;28;20193;-60
2022/12/03 02:19:27;;;;;;;10.07;7.90;;;;;;;6.60;100.00;102680.81;2071407;28;20203;-60
2022/12/03 02:20:30;;;;;;;9.07;7.93;;;;;;;6.65;100.00;102686.06;2071733;28;20182;-60
2022/12/03 02:21:47;;;;;;;10.20;8.30;;;;;;;6.60;100.00;102680.81;2071868;28;20234;-60
2022/12/03 02:23:25;;;;;;;9.27;8.27;;;;;;;6.56;100.00;102687.41;2072064;28;20181;-60
2022/12/03 02:24:41;;;;;;;9.57;7.60;;;;;;;6.36;100.00;102653.44;2049646;28;20205;-60
2022/12/03 02:25:42;;;;;;;8.38;7.30;;;;;;;6.55;100.00;102672.81;2071524;28;20252;-60
2022/12/03 02:26:42;;;;;;;9.47;8.33;;;;;;;6.57;100.00;102677.97;2071568;28;20186;-60
2022/12/03 02:27:43;;;;;;;9.43;8.37;;;;;;;6.56;100.00;102685.44;2071417;28;20568;-60
2022/12/03 02:28:43;;;;;;;8.67;7.70;;;;;;;6.58;100.00;102679.56;2071761;28;20237;-59
2022/12/03 02:29:44;;;;;;;9.73;8.73;;;;;;;6.59;100.00;102679.22;2071182;28;20669;-60
2022/12/03 02:30:45;;;;;;;9.07;8.13;;;;;;;6.55;100.00;102681.09;2071427;28;20180;-59
2022/12/03 02:31:45;;;;;;;9.00;7.67;;;;;;;6.54;100.00;102693.28;2071808;28;20923;-59
2022/12/03 02:32:47;;;;;;;9.17;8.17;;;;;;;6.58;100.00;102691.41;2072000;28;20199;-59
2022/12/03 02:33:48;;;;;;;9.63;8.63;;;;;;;6.59;100.00;102681.16;2071266;28;20860;-60
2022/12/03 02:34:50;;;;;;;9.33;8.33;;;;;;;6.62;100.00;102689.50;2071706;28;20262;-60
2022/12/03 02:35:50;;;;;;;9.57;8.32;;;;;;;6.62;100.00;102686.75;2071480;28;20193;-60
2022/12/03 02:36:50;;;;;;;8.47;7.57;;;;;;;6.63;100.00;102691.13;2071426;28;20298;-60
2022/12/03 02:38:01;;;;;;;10.17;8.83;;;;;;;6.64;100.00;102686.41;2071543;28;20207;-60
2022/12/03 02:39:03;;;;;;;8.65;7.57;;;;;;;6.65;100.00;102690.75;2071733;28;20183;-61
2022/12/03 02:40:11;;;;;;;9.15;7.97;;;;;;;6.59;100.00;102689.44;2071221;28;20191;-60
2022/12/03 02:42:33;;;;;;;10.30;7.90;;;;;;;6.37;100.00;102655.06;2071289;28;20679;-61
2022/12/03 02:42:36;;;;;;;8.95;7.60;;;;;;;6.59;100.00;102689.44;2071625;28;20205;-61
2022/12/03 02:43:37;;;;;;;9.27;7.70;;;;;;;6.58;100.00;102693.34;2071451;28;20183;-60
2022/12/03 02:44:38;;;;;;;8.73;7.67;;;;;;;6.56;100.00;102676.38;2072015;28;20188;-60
2022/12/03 02:45:41;;;;;;;9.40;7.97;;;;;;;6.41;100.00;102650.41;2071176;28;20823;-60
2022/12/03 02:46:42;;;;;;;8.40;7.20;;;;;;;6.69;100.00;102697.16;2071864;28;20214;-60
2022/12/03 02:47:50;;;;;;;8.17;7.27;;;;;;;6.34;100.00;102638.44;2071308;28;20187;-60
2022/12/03 02:48:50;;;;;;;8.88;7.57;;;;;;;6.63;100.00;102677.38;2071856;28;20194;-60
2022/12/03 02:49:51;;;;;;;8.57;7.67;;;;;;;6.67;100.00;102686.50;2070475;28;20203;-59
2022/12/03 02:50:59;;;;;;;8.43;7.53;;;;;;;6.66;100.00;102693.16;2070728;28;20190;-59
2022/12/03 02:52:00;;;;;;;9.40;7.45;;;;;;;6.65;100.00;102691.56;2071358;28;20235;-59
2022/12/03 02:53:05;;;;;;;8.83;7.93;;;;;;;6.60;100.00;102694.59;2071617;28;20181;-60
2022/12/03 02:54:05;;;;;;;8.60;7.68;;;;;;;6.50;100.00;102678.59;2071285;28;20183;-59
2022/12/03 02:55:07;;;;;;;8.70;7.53;;;;;;;6.60;100.00;102697.34;2070859;28;20226;-59
2022/12/03 02:56:09;;;;;;;8.65;7.75;;;;;;;6.54;100.00;102696.03;2071697;28;20265;-60
2022/12/03 02:57:09;;;;;;;8.80;7.40;;;;;;;6.41;100.00;102707.47;2071243;28;20216;-60
2022/12/03 02:58:10;;;;;;;9.17;7.57;;;;;;;6.36;100.00;102699.47;2070974;28;20189;-60
2022/12/03 02:59:11;;;;;;;8.73;7.80;;;;;;;6.31;100.00;102705.25;2070646;28;20763;-60
2022/12/03 03:00:12;;;;;;;9.40;8.17;;;;;;;6.32;100.00;102701.34;2071128;28;20187;-60
2022/12/03 03:01:16;;;;;;;9.48;7.80;;;;;;;6.32;100.00;102701.34;2071403;28;20187;-60
2022/12/03 03:02:17;;;;;;;8.50;7.60;;;;;;;6.35;100.00;102700.63;2071474;28;20775;-59
2022/12/03 03:03:21;;;;;;;7.93;7.13;;;;;;;5.86;100.00;102605.72;2070849;28;20878;-61
2022/12/03 03:04:23;;;;;;;8.73;7.43;;;;;;;6.37;100.00;102701.06;2070575;28;20188;-60
2022/12/03 03:05:24;;;;;;;8.25;7.05;;;;;;;6.27;100.00;102688.63;2070641;28;20422;-61
2022/12/03 03:06:24;;;;;;;9.33;7.80;;;;;;;6.35;100.00;102693.16;2071562;28;20193;-60
2022/12/03 03:07:25;;;;;;;8.07;7.13;;;;;;;6.38;100.00;102692.47;2071551;28;20245;-61
2022/12/03 03:08:27;;;;;;;9.07;7.80;;;;;;;6.42;100.00;102695.31;2071513;28;20221;-61
2022/12/03 03:09:27;;;;;;;8.55;7.55;;;;;;;6.43;100.00;102694.94;2071062;28;20555;-60
2022/12/03 03:10:28;;;;;;;8.73;7.57;;;;;;;6.47;100.00;102697.78;2071168;28;20193;-61
2022/12/03 03:11:29;;;;;;;8.20;7.27;;;;;;;6.46;100.00;102698.97;2071268;28;20258;-61
2022/12/03 03:12:29;;;;;;;9.90;8.50;;;;;;;6.48;100.00;102699.38;2071419;28;20188;-61
2022/12/03 03:13:32;;;;;;;9.27;8.03;;;;;;;6.48;100.00;102700.19;2071273;28;20198;-61
2022/12/03 03:14:32;;;;;;;8.82;7.93;;;;;;;6.37;100.00;102709.34;2071499;28;20178;-59
2022/12/03 03:15:34;;;;;;;9.73;8.73;;;;;;;6.37;100.00;102710.16;2071170;28;20280;-60
2022/12/03 03:16:35;;;;;;;9.50;8.10;;;;;;;6.39;100.00;102701.50;2071654;28;20660;-61
2022/12/03 03:17:36;;;;;;;9.10;7.90;;;;;;;6.35;100.00;102715.19;2071349;28;20561;-61
2022/12/03 03:18:36;;;;;;;9.70;8.30;;;;;;;5.57;100.00;102590.38;2071663;28;20668;-61
2022/12/03 03:19:37;;;;;;;9.50;8.47;;;;;;;5.98;100.00;102641.41;2071003;28;20244;-61
2022/12/03 03:20:38;;;;;;;9.60;8.37;;;;;;;5.51;100.00;102552.47;2071040;28;20669;-62
2022/12/03 03:21:39;;;;;;;9.57;8.10;;;;;;;6.43;100.00;102699.66;2071222;28;20190;-60
2022/12/03 03:22:41;;;;;;;8.87;7.97;;;;;;;6.43;100.00;102705.16;2071587;28;20195;-61
2022/12/03 03:23:41;;;;;;;8.90;7.93;;;;;;;6.41;100.00;102705.50;2071280;28;20270;-61
2022/12/03 03:24:42;;;;;;;8.70;7.80;;;;;;;6.34;100.00;102704.53;2071207;28;20417;-61
2022/12/03 03:25:50;;;;;;;8.67;7.77;;;;;;;6.25;100.00;102707.44;2071383;28;20291;-60
2022/12/03 03:26:51;;;;;;;8.43;7.53;;;;;;;6.23;100.00;102704.25;2071224;28;20640;-61
2022/12/03 03:27:51;;;;;;;8.80;7.90;;;;;;;6.11;100.00;102711.78;2070808;28;20198;-61
2022/12/03 03:28:52;;;;;;;9.27;8.27;;;;;;;5.76;100.00;102651.03;2071574;28;20249;-61
2022/12/03 03:29:52;;;;;;;10.10;8.90;;;;;;;6.13;100.00;102710.28;2071035;28;20187;-60
2022/12/03 03:30:54;;;;;;;8.80;7.80;;;;;;;6.17;100.00;102710.38;2070938;28;20228;-60
2022/12/03 03:31:54;;;;;;;9.95;8.68;;;;;;;6.18;100.00;102714.72;2071285;28;20203;-60
2022/12/03 03:32:55;;;;;;;9.43;8.43;;;;;;;6.20;100.00;102715.97;2071372;28;20184;-60
2022/12/03 03:33:55;;;;;;;9.17;8.03;;;;;;;6.20;100.00;102713.22;2071088;28;20178;-60
2022/12/03 03:34:57;;;;;;;9.90;7.90;;;;;;;6.23;100.00;102707.00;2071674;28;20561;-60
2022/12/03 03:35:59;;;;;;;9.13;7.45;;;;;;;6.21;100.00;102703.00;2071392;28;20190;-61
2022/12/03 03:36:59;;;;;;;9.30;8.00;;;;;;;6.19;100.00;102708.03;2071315;28;20693;-61
2022/12/03 03:38:00;;;;;;;9.37;8.07;;;;;;;5.77;100.00;102635.31;2071266;28;20582;-60
2022/12/03 03:39:01;;;;;;;9.77;8.77;;;;;;;6.13;100.00;102699.25;2071394;28;20575;-61
2022/12/03 03:40:02;;;;;;;9.20;8.20;;;;;;;6.24;100.00;102707.78;2070154;28;20190;-60
2022/12/03 03:41:04;;;;;;;10.53;8.80;;;;;;;6.23;100.00;102708.94;2071471;28;20178;-61
2022/12/03 03:42:05;;;;;;;9.07;7.93;;;;;;;6.21;100.00;102705.75;2071283;28;20680;-60
2022/12/03 03:43:07;;;;;;;9.23;8.17;;;;;;;6.20;100.00;102712.44;2071408;28;20547;-61
2022/12/03 03:44:09;;;;;;;9.65;8.38;;;;;;;6.12;100.00;102714.19;2070841;28;20219;-60
2022/12/03 03:45:09;;;;;;;9.00;8.10;;;;;;;6.13;100.00;102713.03;2071381;28;20244;-60
2022/12/03 03:46:11;;;;;;;9.37;8.20;;;;;;;5.48;100.00;102608.19;2071441;28;20209;-60
2022/12/03 03:47:11;;;;;;;10.50;8.93;;;;;;;6.12;100.00;102711.44;2071370;28;20178;-61
2022/12/03 03:48:13;;;;;;;9.47;8.40;;;;;;;6.09;100.00;102711.31;2071246;28;20644;-60
2022/12/03 03:49:15;;;;;;;9.85;8.30;;;;;;;5.83;100.00;102670.50;2071533;28;20195;-60
2022/12/03 03:50:16;;;;;;;10.48;9.07;;;;;;;6.05;100.00;102702.97;2072395;28;20205;-60
2022/12/03 03:51:18;;;;;;;9.60;8.60;;;;;;;6.08;100.00;102710.53;2072866;28;20190;-60
2022/12/03 03:52:19;;;;;;;10.02;8.95;;;;;;;5.46;100.00;102608.53;2072276;28;20431;-62
2022/12/03 03:53:20;;;;;;;9.57;8.48;;;;;;;6.11;100.00;102711.78;2072915;28;20190;-60
2022/12/03 03:54:39;;;;;;;10.48;8.73;;;;;;;6.06;100.00;102712.81;2072708;28;20186;-60
2022/12/03 03:55:40;;;;;;;9.50;8.50;;;;;;;6.03;100.00;102712.72;2072572;28;20222;-61
2022/12/03 03:56:41;;;;;;;10.90;9.03;;;;;;;5.32;100.00;102602.63;2072794;28;20245;-62
2022/12/03 03:57:42;;;;;;;9.93;8.93;;;;;;;5.90;100.00;102717.47;2072662;28;20217;-61
2022/12/03 03:58:42;;;;;;;10.93;9.73;;;;;;;5.92;100.00;102714.38;2072785;28;20184;-61
2022/12/03 03:59:43;;;;;;;11.10;9.50;;;;;;;5.89;100.00;102706.84;2072347;28;20183;-61
2022/12/03 04:00:44;;;;;;;10.77;8.93;;;;;;;5.92;100.00;102708.88;2072471;28;20265;-61
2022/12/03 04:01:45;;;;;;;10.35;9.02;;;;;;;5.85;100.00;102706.72;2072433;28;20189;-61
2022/12/03 04:02:45;;;;;;;10.33;8.40;;;;;;;5.88;100.00;102700.53;2073003;28;20181;-62
2022/12/03 04:03:46;;;;;;;10.03;8.87;;;;;;;5.95;100.00;102708.19;2072340;28;20185;-60
2022/12/03 04:04:47;;;;;;;10.67;8.80;;;;;;;5.95;100.00;102706.22;2073069;28;20191;-60
2022/12/03 04:05:49;;;;;;;9.27;8.27;;;;;;;5.97;100.00;102703.94;2072576;28;20190;-61
2022/12/03 04:06:50;;;;;;;11.00;8.40;;;;;;;5.95;100.00;102703.47;2072123;28;20328;-60
2022/12/03 04:07:50;;;;;;;10.23;8.80;;;;;;;5.66;100.00;102659.78;2072675;28;20180;-61
2022/12/03 04:08:51;;;;;;;11.53;9.47;;;;;;;6.02;100.00;102702.88;2072836;28;20495;-60
2022/12/03 04:09:51;;;;;;;10.73;8.53;;;;;;;6.07;100.00;102706.19;2072297;28;20188;-62
2022/12/03 04:13:31;;;;;;;9.65;8.55;;;;;;;5.94;100.00;102706.59;2072398;28;20625;-60
2022/12/03 04:14:31;;;;;;;10.73;8.77;;;;;;;5.88;100.00;102711.53;2072699;28;20185;-60
2022/12/03 04:15:32;;;;;;;9.93;8.70;;;;;;;5.68;100.00;102711.69;2072447;28;20270;-60
2022/12/03 04:16:32;;;;;;;11.27;9.00;;;;;;;5.70;100.00;102717.66;2072653;28;20182;-60
2022/12/03 04:17:32;;;;;;;9.70;8.70;;;;;;;5.76;100.00;102719.81;2072432;28;20644;-61
2022/12/03 04:18:42;;;;;;;10.13;8.70;;;;;;;5.74;100.00;102711.09;2072905;28;20227;-61
2022/12/03 04:19:42;;;;;;;10.65;9.05;;;;;;;5.27;100.00;102644.09;2072068;28;20179;-60
2022/12/03 04:20:43;;;;;;;10.33;8.53;;;;;;;5.39;100.00;102676.25;2072522;28;20191;-60
2022/12/03 04:23:03;;;;;;;10.43;9.20;;;;;;;5.85;100.00;102719.69;2072781;28;20227;-61
2022/12/03 04:24:05;;;;;;;10.30;8.95;;;;;;;5.89;100.00;102718.63;2072559;28;20198;-60
2022/12/03 04:29:06;;;;;;;9.20;8.15;;;;;;;5.75;100.00;102685.16;2071714;28;20199;-61
2022/12/03 04:30:07;;;;;;;9.03;8.13;;;;;;;6.01;100.00;102710.31;2072347;28;20186;-60
2022/12/03 04:36:24;;;;;;;10.23;8.95;;;;;;;5.79;100.00;102713.59;2072670;28;20186;-61
2022/12/03 04:37:25;;;;;;;9.53;8.43;;;;;;;5.84;100.00;102710.63;2072518;28;20873;-60
2022/12/03 04:38:25;;;;;;;9.53;8.53;;;;;;;5.90;100.00;102711.97;2072466;28;20174;-60
2022/12/03 04:39:26;;;;;;;9.57;8.40;;;;;;;5.47;100.00;102653.31;2071971;28;20213;-60
2022/12/03 04:41:45;;;;;;;9.10;7.65;;;;;;;5.84;100.00;102716.13;2072296;28;20643;-62
2022/12/03 04:42:46;;;;;;;10.13;8.17;;;;;;;5.81;100.00;102710.53;2072688;28;20565;-60
2022/12/03 04:45:06;;;;;;;8.55;7.47;;;;;;;5.85;100.00;102717.72;2072580;28;20865;-60
2022/12/03 04:46:06;;;;;;;8.85;7.65;;;;;;;5.71;100.00;102691.75;2072462;28;20184;-61
2022/12/03 04:47:10;;;;;;;9.43;8.03;;;;;;;5.91;100.00;102723.78;2072438;28;20197;-61
2022/12/03 04:48:10;;;;;;;9.43;8.07;;;;;;;5.56;100.00;102652.03;2071896;28;20292;-60
2022/12/03 04:49:11;;;;;;;9.60;8.60;;;;;;;6.04;100.00;102723.38;2072043;28;20195;-60
2022/12/03 04:50:11;;;;;;;9.53;8.30;;;;;;;6.04;100.00;102731.66;2071818;28;20191;-60
2022/12/03 04:51:11;;;;;;;9.60;8.10;;;;;;;5.45;100.00;102634.44;2072397;28;20188;-61
2022/12/03 04:52:14;;;;;;;9.43;8.03;;;;;;;6.03;100.00;102732.81;2072283;28;20182;-60
2022/12/03 04:53:15;;;;;;;8.95;8.05;;;;;;;6.01;100.00;102728.78;2072071;28;20810;-61
2022/12/03 04:54:15;;;;;;;8.87;7.70;;;;;;;5.99;100.00;102720.88;2072556;28;20569;-60
2022/12/03 04:55:15;;;;;;;8.80;7.53;;;;;;;6.00;100.00;102730.72;2071391;28;20712;-62
2022/12/03 04:56:16;;;;;;;9.47;8.40;;;;;;;6.08;100.00;102735.31;2072418;28;20224;-61
2022/12/03 04:57:16;;;;;;;10.67;8.57;;;;;;;6.10;100.00;102721.97;2071409;28;20275;-60
2022/12/03 04:58:17;;;;;;;10.53;8.40;;;;;;;6.05;100.00;102724.19;2071540;28;20312;-60
2022/12/03 04:59:17;;;;;;;10.07;8.80;;;;;;;6.16;100.00;102737.09;2071983;28;20217;-61
2022/12/03 05:00:18;;;;;;;9.50;8.50;;;;;;;6.21;100.00;102727.78;2071822;28;20656;-61
2022/12/03 05:01:18;;;;;;;10.07;8.77;;;;;;;6.23;100.00;102729.03;2072089;28;20174;-60
2022/12/03 05:02:18;;;;;;;8.60;7.70;;;;;;;6.19;100.00;102736.38;2072489;28;20177;-61
2022/12/03 05:03:19;;;;;;;10.43;8.03;;;;;;;6.19;100.00;102736.38;2072275;28;20178;-60
2022/12/03 05:04:19;;;;;;;9.93;7.87;;;;;;;6.20;100.00;102738.00;2072037;28;20211;-61